sensor_id;sensor_type;location;lat;lon;timestamp;pressure;altitude;pressure_sealevel;temperature;humidity
77431;BME280;66498;48.564;19.272;2023-02-28T00:01:33;98516.97;;;-4.56;77.26
77431;BME280;66498;48.564;19.272;2023-02-28T00:03:58;98515.22;;;-4.68;77.01
77431;BME280;66498;48.564;19.272;2023-02-28T00:06:24;98513.97;;;-4.76;77.34
77431;BME280;66498;48.564;19.272;2023-02-28T00:08:49;98515.00;;;-4.65;77.82
77431;BME280;66498;48.564;19.272;2023-02-28T00:11:15;98514.59;;;-4.85;77.52
77431;BME280;66498;48.564;19.272;2023-02-28T00:13:44;98513.66;;;-4.84;77.32
77431;BME280;66498;48.564;19.272;2023-02-28T00:16:15;98517.03;;;-4.83;78.46
77431;BME280;66498;48.564;19.272;2023-02-28T00:18:41;98511.72;;;-4.67;78.13
77431;BME280;66498;48.564;19.272;2023-02-28T00:21:07;98520.84;;;-4.76;79.39
77431;BME280;66498;48.564;19.272;2023-02-28T00:23:33;98519.63;;;-4.70;78.89
77431;BME280;66498;48.564;19.272;2023-02-28T00:25:58;98529.34;;;-4.63;78.60
77431;BME280;66498;48.564;19.272;2023-02-28T00:28:24;98532.13;;;-4.79;77.97
77431;BME280;66498;48.564;19.272;2023-02-28T00:30:50;98527.91;;;-4.92;78.33
77431;BME280;66498;48.564;19.272;2023-02-28T00:33:15;98533.81;;;-5.05;78.75
77431;BME280;66498;48.564;19.272;2023-02-28T00:35:41;98530.34;;;-4.91;79.47
77431;BME280;66498;48.564;19.272;2023-02-28T00:38:07;98525.34;;;-4.92;79.57
77431;BME280;66498;48.564;19.272;2023-02-28T00:40:32;98517.16;;;-4.59;76.74
77431;BME280;66498;48.564;19.272;2023-02-28T00:42:58;98517.91;;;-4.44;75.68
77431;BME280;66498;48.564;19.272;2023-02-28T00:45:23;98523.94;;;-4.45;76.13
77431;BME280;66498;48.564;19.272;2023-02-28T00:47:48;98512.75;;;-4.32;74.93
77431;BME280;66498;48.564;19.272;2023-02-28T00:50:18;98517.66;;;-4.80;77.07
77431;BME280;66498;48.564;19.272;2023-02-28T00:52:44;98520.72;;;-4.87;76.77
77431;BME280;66498;48.564;19.272;2023-02-28T00:55:09;98521.75;;;-4.90;76.98
77431;BME280;66498;48.564;19.272;2023-02-28T00:57:35;98519.59;;;-4.83;77.68
77431;BME280;66498;48.564;19.272;2023-02-28T01:00:00;98533.31;;;-4.97;77.34
77431;BME280;66498;48.564;19.272;2023-02-28T01:02:26;98538.16;;;-4.92;76.88
77431;BME280;66498;48.564;19.272;2023-02-28T01:04:52;98523.94;;;-4.71;76.94
77431;BME280;66498;48.564;19.272;2023-02-28T01:07:17;98524.25;;;-4.24;74.89
77431;BME280;66498;48.564;19.272;2023-02-28T01:09:43;98534.50;;;-4.37;74.55
77431;BME280;66498;48.564;19.272;2023-02-28T01:12:09;98522.19;;;-4.58;75.53
77431;BME280;66498;48.564;19.272;2023-02-28T01:14:35;98523.94;;;-4.71;78.04
77431;BME280;66498;48.564;19.272;2023-02-28T01:17:01;98521.28;;;-4.57;77.29
77431;BME280;66498;48.564;19.272;2023-02-28T01:19:27;98523.03;;;-4.44;78.53
77431;BME280;66498;48.564;19.272;2023-02-28T01:21:52;98524.75;;;-4.32;77.97
77431;BME280;66498;48.564;19.272;2023-02-28T01:24:18;98522.59;;;-4.13;76.12
77431;BME280;66498;48.564;19.272;2023-02-28T01:26:44;98519.28;;;-4.02;75.46
77431;BME280;66498;48.564;19.272;2023-02-28T01:29:09;98531.09;;;-4.25;77.85
77431;BME280;66498;48.564;19.272;2023-02-28T01:31:35;98536.94;;;-4.36;77.89
77431;BME280;66498;48.564;19.272;2023-02-28T01:34:01;98536.56;;;-4.55;77.73
77431;BME280;66498;48.564;19.272;2023-02-28T01:36:26;98533.16;;;-4.68;78.21
77431;BME280;66498;48.564;19.272;2023-02-28T01:38:53;98544.13;;;-4.66;77.68
77431;BME280;66498;48.564;19.272;2023-02-28T01:41:22;98548.53;;;-4.56;77.86
77431;BME280;66498;48.564;19.272;2023-02-28T01:46:14;98548.38;;;-4.80;77.76
77431;BME280;66498;48.564;19.272;2023-02-28T01:48:45;98548.84;;;-5.00;78.14
77431;BME280;66498;48.564;19.272;2023-02-28T01:51:23;98546.03;;;-4.95;77.92
77431;BME280;66498;48.564;19.272;2023-02-28T01:53:56;98544.25;;;-4.30;75.79
77431;BME280;66498;48.564;19.272;2023-02-28T01:56:28;98550.38;;;-4.07;74.39
77431;BME280;66498;48.564;19.272;2023-02-28T01:58:54;98553.66;;;-4.43;75.32
77431;BME280;66498;48.564;19.272;2023-02-28T02:01:22;98548.59;;;-4.83;78.79
77431;BME280;66498;48.564;19.272;2023-02-28T02:03:53;98545.97;;;-4.56;77.05
77431;BME280;66498;48.564;19.272;2023-02-28T02:06:25;98553.66;;;-4.68;78.52
77431;BME280;66498;48.564;19.272;2023-02-28T02:08:51;98550.47;;;-4.59;79.92
77431;BME280;66498;48.564;19.272;2023-02-28T02:11:19;98554.06;;;-4.49;78.70
77431;BME280;66498;48.564;19.272;2023-02-28T02:14:09;98556.13;;;-4.54;79.30
77431;BME280;66498;48.564;19.272;2023-02-28T02:17:04;98552.03;;;-4.44;80.36
77431;BME280;66498;48.564;19.272;2023-02-28T02:36:13;98559.72;;;-4.06;80.07
77431;BME280;66498;48.564;19.272;2023-02-28T02:38:52;98560.53;;;-4.05;79.25
77431;BME280;66498;48.564;19.272;2023-02-28T02:41:26;98553.84;;;-4.08;79.33
77431;BME280;66498;48.564;19.272;2023-02-28T02:43:58;98551.59;;;-4.12;80.27
77431;BME280;66498;48.564;19.272;2023-02-28T02:46:36;98559.41;;;-4.14;80.04
77431;BME280;66498;48.564;19.272;2023-02-28T02:49:03;98556.41;;;-3.95;79.65
77431;BME280;66498;48.564;19.272;2023-02-28T02:51:32;98552.94;;;-3.94;79.56
77431;BME280;66498;48.564;19.272;2023-02-28T02:54:06;98555.78;;;-3.86;79.17
77431;BME280;66498;48.564;19.272;2023-02-28T02:56:34;98555.59;;;-3.95;77.34
77431;BME280;66498;48.564;19.272;2023-02-28T02:59:03;98564.22;;;-3.96;77.78
77431;BME280;66498;48.564;19.272;2023-02-28T03:01:30;98562.47;;;-4.09;78.61
77431;BME280;66498;48.564;19.272;2023-02-28T03:04:03;98557.16;;;-4.18;78.93
77431;BME280;66498;48.564;19.272;2023-02-28T03:06:30;98559.69;;;-3.93;77.49
77431;BME280;66498;48.564;19.272;2023-02-28T03:08:55;98556.00;;;-4.01;77.26
77431;BME280;66498;48.564;19.272;2023-02-28T03:11:21;98565.03;;;-4.09;79.03
77431;BME280;66498;48.564;19.272;2023-02-28T03:25:14;98577.97;;;-4.10;79.15
77431;BME280;66498;48.564;19.272;2023-02-28T03:28:03;98578.38;;;-4.16;79.83
77431;BME280;66498;48.564;19.272;2023-02-28T03:33:27;98576.63;;;-4.16;79.90
77431;BME280;66498;48.564;19.272;2023-02-28T03:36:02;98574.00;;;-4.14;79.97
77431;BME280;66498;48.564;19.272;2023-02-28T03:41:04;98570.66;;;-3.91;79.12
77431;BME280;66498;48.564;19.272;2023-02-28T03:43:34;98572.81;;;-3.85;79.43
77431;BME280;66498;48.564;19.272;2023-02-28T03:46:05;98570.56;;;-3.89;79.42
77431;BME280;66498;48.564;19.272;2023-02-28T03:51:07;98578.06;;;-3.99;78.42
77431;BME280;66498;48.564;19.272;2023-02-28T03:53:37;98572.44;;;-4.04;78.97
77431;BME280;66498;48.564;19.272;2023-02-28T03:56:15;98575.34;;;-3.59;76.49
77431;BME280;66498;48.564;19.272;2023-02-28T03:59:01;98573.13;;;-3.76;77.08
77431;BME280;66498;48.564;19.272;2023-02-28T04:01:39;98577.66;;;-3.80;77.97
77431;BME280;66498;48.564;19.272;2023-02-28T04:04:09;98575.28;;;-3.96;78.67
77431;BME280;66498;48.564;19.272;2023-02-28T04:06:36;98581.84;;;-3.92;78.30
77431;BME280;66498;48.564;19.272;2023-02-28T04:09:03;98579.28;;;-3.79;77.38
77431;BME280;66498;48.564;19.272;2023-02-28T04:11:44;98575.59;;;-3.88;78.39
77431;BME280;66498;48.564;19.272;2023-02-28T04:14:11;98575.00;;;-4.17;79.07
77431;BME280;66498;48.564;19.272;2023-02-28T04:16:39;98581.78;;;-4.16;79.52
77431;BME280;66498;48.564;19.272;2023-02-28T04:19:07;98588.63;;;-4.29;79.80
77431;BME280;66498;48.564;19.272;2023-02-28T04:21:37;98590.38;;;-4.30;80.64
77431;BME280;66498;48.564;19.272;2023-02-28T04:24:07;98587.81;;;-4.30;80.36
77431;BME280;66498;48.564;19.272;2023-02-28T04:26:35;98595.09;;;-4.36;80.57
77431;BME280;66498;48.564;19.272;2023-02-28T04:29:03;98590.09;;;-4.38;80.68
77431;BME280;66498;48.564;19.272;2023-02-28T04:31:29;98590.38;;;-4.55;80.99
77431;BME280;66498;48.564;19.272;2023-02-28T04:33:55;98593.13;;;-4.58;80.50
77431;BME280;66498;48.564;19.272;2023-02-28T04:36:20;98594.41;;;-4.78;80.71
77431;BME280;66498;48.564;19.272;2023-02-28T04:38:48;98597.41;;;-4.71;81.27
77431;BME280;66498;48.564;19.272;2023-02-28T04:41:13;98591.84;;;-4.78;81.08
77431;BME280;66498;48.564;19.272;2023-02-28T04:43:39;98591.66;;;-4.62;81.30
77431;BME280;66498;48.564;19.272;2023-02-28T04:46:05;98591.66;;;-4.62;81.45
77431;BME280;66498;48.564;19.272;2023-02-28T04:48:32;98587.19;;;-4.86;82.24
77431;BME280;66498;48.564;19.272;2023-02-28T04:51:17;98588.25;;;-4.76;81.01
77431;BME280;66498;48.564;19.272;2023-02-28T04:53:43;98589.28;;;-4.78;81.05
77431;BME280;66498;48.564;19.272;2023-02-28T04:56:14;98584.19;;;-4.65;80.49
77431;BME280;66498;48.564;19.272;2023-02-28T04:58:40;98588.81;;;-4.97;81.79
77431;BME280;66498;48.564;19.272;2023-02-28T05:01:27;98590.00;;;-4.76;80.92
77431;BME280;66498;48.564;19.272;2023-02-28T05:03:56;98591.94;;;-4.80;80.78
77431;BME280;66498;48.564;19.272;2023-02-28T05:06:23;98590.50;;;-4.84;80.39
77431;BME280;66498;48.564;19.272;2023-02-28T05:08:49;98588.09;;;-5.00;81.26
77431;BME280;66498;48.564;19.272;2023-02-28T05:11:29;98592.81;;;-4.93;81.41
77431;BME280;66498;48.564;19.272;2023-02-28T05:14:07;98586.34;;;-4.59;80.01
77431;BME280;66498;48.564;19.272;2023-02-28T05:16:34;98589.28;;;-4.65;79.54
77431;BME280;66498;48.564;19.272;2023-02-28T05:19:00;98585.28;;;-4.82;80.75
77431;BME280;66498;48.564;19.272;2023-02-28T05:21:31;98582.53;;;-5.06;81.81
77431;BME280;66498;48.564;19.272;2023-02-28T05:24:00;98583.56;;;-5.09;82.04
77431;BME280;66498;48.564;19.272;2023-02-28T05:26:26;98584.72;;;-5.00;82.19
77431;BME280;66498;48.564;19.272;2023-02-28T05:28:52;98578.28;;;-4.93;81.46
77431;BME280;66498;48.564;19.272;2023-02-28T05:31:17;98588.69;;;-4.69;80.60
77431;BME280;66498;48.564;19.272;2023-02-28T05:33:43;98586.56;;;-4.49;79.05
77431;BME280;66498;48.564;19.272;2023-02-28T05:36:09;98591.50;;;-4.46;79.10
77431;BME280;66498;48.564;19.272;2023-02-28T05:38:34;98590.91;;;-4.37;78.33
77431;BME280;66498;48.564;19.272;2023-02-28T05:41:00;98600.78;;;-4.71;79.90
77431;BME280;66498;48.564;19.272;2023-02-28T05:43:25;98601.09;;;-4.63;79.99
77431;BME280;66498;48.564;19.272;2023-02-28T05:45:51;98601.00;;;-4.61;79.19
77431;BME280;66498;48.564;19.272;2023-02-28T05:48:16;98603.56;;;-4.61;79.74
77431;BME280;66498;48.564;19.272;2023-02-28T05:50:43;98611.19;;;-4.87;81.01
77431;BME280;66498;48.564;19.272;2023-02-28T05:53:11;98613.97;;;-4.77;80.94
77431;BME280;66498;48.564;19.272;2023-02-28T05:55:36;98607.75;;;-5.00;81.61
77431;BME280;66498;48.564;19.272;2023-02-28T05:58:02;98613.00;;;-5.02;81.95
77431;BME280;66498;48.564;19.272;2023-02-28T06:00:28;98605.94;;;-4.98;80.73
77431;BME280;66498;48.564;19.272;2023-02-28T06:02:53;98609.88;;;-5.07;80.28
77431;BME280;66498;48.564;19.272;2023-02-28T06:05:21;98610.81;;;-5.08;80.70
77431;BME280;66498;48.564;19.272;2023-02-28T06:07:47;98617.19;;;-5.01;80.06
77431;BME280;66498;48.564;19.272;2023-02-28T06:10:13;98610.56;;;-4.90;79.21
77431;BME280;66498;48.564;19.272;2023-02-28T06:12:39;98620.47;;;-4.71;78.66
77431;BME280;66498;48.564;19.272;2023-02-28T06:15:07;98616.25;;;-4.72;79.05
77431;BME280;66498;48.564;19.272;2023-02-28T06:17:34;98619.75;;;-4.61;78.54
77431;BME280;66498;48.564;19.272;2023-02-28T06:20:00;98624.53;;;-4.69;79.07
77431;BME280;66498;48.564;19.272;2023-02-28T06:22:25;98626.75;;;-4.50;78.29
77431;BME280;66498;48.564;19.272;2023-02-28T06:24:51;98628.72;;;-4.41;78.14
77431;BME280;66498;48.564;19.272;2023-02-28T06:27:17;98628.09;;;-4.32;78.11
77431;BME280;66498;48.564;19.272;2023-02-28T06:29:44;98632.53;;;-4.08;77.67
77431;BME280;66498;48.564;19.272;2023-02-28T06:32:10;98635.72;;;-3.66;75.43
77431;BME280;66498;48.564;19.272;2023-02-28T06:34:35;98638.97;;;-3.64;76.07
77431;BME280;66498;48.564;19.272;2023-02-28T06:37:01;98632.69;;;-3.47;75.70
77431;BME280;66498;48.564;19.272;2023-02-28T06:39:28;98633.34;;;-3.57;75.96
77431;BME280;66498;48.564;19.272;2023-02-28T06:41:54;98634.88;;;-3.54;76.16
77431;BME280;66498;48.564;19.272;2023-02-28T06:44:19;98630.72;;;-3.44;76.22
77431;BME280;66498;48.564;19.272;2023-02-28T06:46:45;98633.34;;;-3.20;75.30
77431;BME280;66498;48.564;19.272;2023-02-28T06:49:11;98629.59;;;-3.40;76.62
77431;BME280;66498;48.564;19.272;2023-02-28T06:51:39;98627.66;;;-3.36;76.37
77431;BME280;66498;48.564;19.272;2023-02-28T06:54:05;98632.69;;;-3.35;75.96
77431;BME280;66498;48.564;19.272;2023-02-28T06:56:34;98635.28;;;-3.11;75.22
77431;BME280;66498;48.564;19.272;2023-02-28T06:59:00;98627.34;;;-3.07;74.62
77431;BME280;66498;48.564;19.272;2023-02-28T07:01:26;98635.59;;;-3.15;73.87
77431;BME280;66498;48.564;19.272;2023-02-28T07:03:53;98642.25;;;-3.13;73.78
77431;BME280;66498;48.564;19.272;2023-02-28T07:06:23;98645.50;;;-2.98;73.87
77431;BME280;66498;48.564;19.272;2023-02-28T07:08:50;98645.47;;;-2.85;72.15
77431;BME280;66498;48.564;19.272;2023-02-28T07:11:15;98643.00;;;-2.87;73.39
77431;BME280;66498;48.564;19.272;2023-02-28T07:13:41;98649.28;;;-2.67;73.60
77431;BME280;66498;48.564;19.272;2023-02-28T07:16:09;98643.09;;;-2.64;74.44
77431;BME280;66498;48.564;19.272;2023-02-28T07:18:36;98650.50;;;-2.48;73.30
77431;BME280;66498;48.564;19.272;2023-02-28T07:21:03;98655.22;;;-2.42;73.73
77431;BME280;66498;48.564;19.272;2023-02-28T07:23:29;98648.38;;;-2.30;72.97
77431;BME280;66498;48.564;19.272;2023-02-28T07:25:54;98648.22;;;-2.40;73.69
77431;BME280;66498;48.564;19.272;2023-02-28T07:28:20;98655.59;;;-2.35;74.28
77431;BME280;66498;48.564;19.272;2023-02-28T07:30:45;98660.56;;;-2.10;73.89
77431;BME280;66498;48.564;19.272;2023-02-28T07:33:11;98663.75;;;-2.42;74.22
77431;BME280;66498;48.564;19.272;2023-02-28T07:35:36;98659.78;;;-2.70;74.52
77431;BME280;66498;48.564;19.272;2023-02-28T07:38:03;98662.84;;;-2.29;74.29
77431;BME280;66498;48.564;19.272;2023-02-28T07:40:28;98667.38;;;-1.98;72.33
77431;BME280;66498;48.564;19.272;2023-02-28T07:42:54;98659.13;;;-2.14;74.31
77431;BME280;66498;48.564;19.272;2023-02-28T07:45:19;98656.16;;;-1.85;73.06
77431;BME280;66498;48.564;19.272;2023-02-28T07:47:45;98650.16;;;-1.97;74.01
77431;BME280;66498;48.564;19.272;2023-02-28T07:50:13;98662.78;;;-2.17;73.82
77431;BME280;66498;48.564;19.272;2023-02-28T07:52:39;98653.22;;;-1.81;72.22
77431;BME280;66498;48.564;19.272;2023-02-28T07:55:06;98660.03;;;-1.35;70.53
77431;BME280;66498;48.564;19.272;2023-02-28T07:57:32;98661.31;;;-1.18;69.38
77431;BME280;66498;48.564;19.272;2023-02-28T07:59:58;98650.97;;;-0.63;67.04
77431;BME280;66498;48.564;19.272;2023-02-28T08:02:24;98655.75;;;-0.27;67.27
77431;BME280;66498;48.564;19.272;2023-02-28T08:04:49;98656.75;;;-0.18;65.62
77431;BME280;66498;48.564;19.272;2023-02-28T08:07:15;98658.97;;;-0.13;64.02
77431;BME280;66498;48.564;19.272;2023-02-28T08:09:42;98657.81;;;-0.20;62.80
77431;BME280;66498;48.564;19.272;2023-02-28T08:12:09;98656.75;;;-0.18;63.94
77431;BME280;66498;48.564;19.272;2023-02-28T08:14:35;98657.38;;;-0.26;61.91
77431;BME280;66498;48.564;19.272;2023-02-28T08:17:02;98657.56;;;-0.38;62.63
77431;BME280;66498;48.564;19.272;2023-02-28T08:19:28;98659.91;;;-0.67;63.68
77431;BME280;66498;48.564;19.272;2023-02-28T08:21:56;98655.97;;;-0.51;63.86
77431;BME280;66498;48.564;19.272;2023-02-28T08:24:22;98661.31;;;-0.63;63.95
77431;BME280;66498;48.564;19.272;2023-02-28T08:26:48;98657.38;;;-0.46;63.70
77431;BME280;66498;48.564;19.272;2023-02-28T08:29:14;98667.53;;;-0.34;63.67
77431;BME280;66498;48.564;19.272;2023-02-28T08:31:40;98659.22;;;-0.37;63.52
77431;BME280;66498;48.564;19.272;2023-02-28T08:34:07;98654.78;;;-0.46;64.58
77431;BME280;66498;48.564;19.272;2023-02-28T08:36:33;98666.41;;;-0.20;63.75
77431;BME280;66498;48.564;19.272;2023-02-28T08:38:59;98657.78;;;-0.62;64.61
77431;BME280;66498;48.564;19.272;2023-02-28T08:41:25;98661.75;;;-0.58;65.38
77431;BME280;66498;48.564;19.272;2023-02-28T08:43:51;98660.50;;;-0.64;64.27
77431;BME280;66498;48.564;19.272;2023-02-28T08:46:17;98666.34;;;-0.41;63.93
77431;BME280;66498;48.564;19.272;2023-02-28T08:48:43;98662.78;;;-0.50;63.77
77431;BME280;66498;48.564;19.272;2023-02-28T08:51:12;98664.25;;;-0.36;63.70
77431;BME280;66498;48.564;19.272;2023-02-28T08:53:39;98664.13;;;-0.13;62.77
77431;BME280;66498;48.564;19.272;2023-02-28T08:56:11;98674.13;;;-0.20;63.08
77431;BME280;66498;48.564;19.272;2023-02-28T08:58:37;98660.59;;;-0.12;61.32
77431;BME280;66498;48.564;19.272;2023-02-28T09:01:14;98660.84;;;-0.15;62.22
77431;BME280;66498;48.564;19.272;2023-02-28T09:03:41;98666.16;;;-0.17;65.08
77431;BME280;66498;48.564;19.272;2023-02-28T09:06:07;98660.41;;;0.01;64.84
77431;BME280;66498;48.564;19.272;2023-02-28T09:08:33;98666.69;;;0.29;63.65
77431;BME280;66498;48.564;19.272;2023-02-28T09:10:59;98660.41;;;0.52;63.72
77431;BME280;66498;48.564;19.272;2023-02-28T09:13:25;98662.22;;;0.71;62.73
77431;BME280;66498;48.564;19.272;2023-02-28T09:15:52;98659.03;;;0.88;61.74
77431;BME280;66498;48.564;19.272;2023-02-28T09:18:18;98655.94;;;1.04;59.63
77431;BME280;66498;48.564;19.272;2023-02-28T09:20:44;98648.19;;;1.24;55.94
77431;BME280;66498;48.564;19.272;2023-02-28T09:23:11;98651.75;;;1.23;55.22
77431;BME280;66498;48.564;19.272;2023-02-28T09:25:37;98645.53;;;0.85;54.25
77431;BME280;66498;48.564;19.272;2023-02-28T09:28:03;98651.44;;;1.06;54.57
77431;BME280;66498;48.564;19.272;2023-02-28T09:30:29;98649.81;;;0.96;54.96
77431;BME280;66498;48.564;19.272;2023-02-28T09:32:56;98650.91;;;1.22;55.30
77431;BME280;66498;48.564;19.272;2023-02-28T09:35:25;98654.44;;;1.11;54.89
77431;BME280;66498;48.564;19.272;2023-02-28T09:37:52;98650.91;;;1.12;53.94
77431;BME280;66498;48.564;19.272;2023-02-28T09:40:19;98647.47;;;0.92;53.64
77431;BME280;66498;48.564;19.272;2023-02-28T09:42:48;98649.16;;;1.52;52.32
77431;BME280;66498;48.564;19.272;2023-02-28T09:45:39;98647.53;;;1.60;54.33
77431;BME280;66498;48.564;19.272;2023-02-28T09:48:23;98650.25;;;1.69;51.90
77431;BME280;66498;48.564;19.272;2023-02-28T09:51:03;98642.72;;;1.95;52.31
77431;BME280;66498;48.564;19.272;2023-02-28T09:53:32;98646.19;;;1.47;53.60
77431;BME280;66498;48.564;19.272;2023-02-28T09:59:18;98640.03;;;1.57;52.08
77431;BME280;66498;48.564;19.272;2023-02-28T10:02:24;98654.34;;;1.42;52.85
77431;BME280;66498;48.564;19.272;2023-02-28T10:05:13;98647.81;;;1.57;51.97
77431;BME280;66498;48.564;19.272;2023-02-28T10:12:57;98648.19;;;1.92;53.24
77431;BME280;66498;48.564;19.272;2023-02-28T10:15:26;98635.94;;;2.31;52.09
77431;BME280;66498;48.564;19.272;2023-02-28T10:18:03;98638.31;;;2.24;50.41
77431;BME280;66498;48.564;19.272;2023-02-28T10:20:33;98636.38;;;2.64;45.39
77431;BME280;66498;48.564;19.272;2023-02-28T10:23:28;98641.22;;;2.49;47.10
77431;BME280;66498;48.564;19.272;2023-02-28T10:25:58;98633.41;;;2.58;46.97
77431;BME280;66498;48.564;19.272;2023-02-28T10:28:25;98629.16;;;2.57;48.49
77431;BME280;66498;48.564;19.272;2023-02-28T10:30:53;98631.94;;;2.46;47.72
77431;BME280;66498;48.564;19.272;2023-02-28T10:33:33;98630.59;;;2.70;45.58
77431;BME280;66498;48.564;19.272;2023-02-28T10:36:03;98630.69;;;2.78;46.75
77431;BME280;66498;48.564;19.272;2023-02-28T10:38:39;98624.97;;;2.74;48.12
77431;BME280;66498;48.564;19.272;2023-02-28T10:41:13;98618.53;;;3.24;49.06
77431;BME280;66498;48.564;19.272;2023-02-28T10:43:40;98625.13;;;2.73;46.74
77431;BME280;66498;48.564;19.272;2023-02-28T10:48:41;98621.66;;;3.10;46.74
77431;BME280;66498;48.564;19.272;2023-02-28T10:51:11;98610.88;;;3.22;47.60
77431;BME280;66498;48.564;19.272;2023-02-28T11:03:56;98593.94;;;3.10;49.41
77431;BME280;66498;48.564;19.272;2023-02-28T11:06:26;98602.59;;;3.37;49.61
77431;BME280;66498;48.564;19.272;2023-02-28T11:08:54;98596.94;;;3.05;50.47
77431;BME280;66498;48.564;19.272;2023-02-28T11:11:22;98588.22;;;3.24;49.79
77431;BME280;66498;48.564;19.272;2023-02-28T11:13:52;98590.00;;;3.24;47.25
77431;BME280;66498;48.564;19.272;2023-02-28T11:16:18;98589.16;;;3.41;47.97
77431;BME280;66498;48.564;19.272;2023-02-28T11:18:48;98588.38;;;3.23;50.92
77431;BME280;66498;48.564;19.272;2023-02-28T11:21:18;98588.59;;;3.73;50.90
77431;BME280;66498;48.564;19.272;2023-02-28T11:23:45;98582.75;;;3.71;49.75
77431;BME280;66498;48.564;19.272;2023-02-28T11:26:12;98580.41;;;3.86;47.63
77431;BME280;66498;48.564;19.272;2023-02-28T11:28:40;98580.34;;;3.34;47.97
77431;BME280;66498;48.564;19.272;2023-02-28T11:33:46;98565.69;;;3.95;49.87
77431;BME280;66498;48.564;19.272;2023-02-28T11:36:18;98561.66;;;4.00;47.04
77431;BME280;66498;48.564;19.272;2023-02-28T11:38:44;98560.50;;;3.95;47.37
77431;BME280;66498;48.564;19.272;2023-02-28T11:47:01;98551.38;;;3.65;50.91
77431;BME280;66498;48.564;19.272;2023-02-28T11:52:16;98550.44;;;3.48;52.30
77431;BME280;66498;48.564;19.272;2023-02-28T11:55:11;98541.84;;;3.73;52.49
77431;BME280;66498;48.564;19.272;2023-02-28T12:03:42;98536.81;;;3.72;53.75
77431;BME280;66498;48.564;19.272;2023-02-28T12:20:17;98518.09;;;4.29;52.69
77431;BME280;66498;48.564;19.272;2023-02-28T12:28:40;98513.31;;;4.58;49.18
77431;BME280;66498;48.564;19.272;2023-02-28T12:31:17;98513.13;;;4.43;49.57
77431;BME280;66498;48.564;19.272;2023-02-28T12:33:47;98513.28;;;4.42;50.02
77431;BME280;66498;48.564;19.272;2023-02-28T12:36:18;98515.88;;;4.42;50.63
77431;BME280;66498;48.564;19.272;2023-02-28T12:39:00;98509.75;;;4.59;52.21
77431;BME280;66498;48.564;19.272;2023-02-28T12:41:54;98506.34;;;4.59;53.19
77431;BME280;66498;48.564;19.272;2023-02-28T12:44:48;98506.06;;;5.03;51.77
77431;BME280;66498;48.564;19.272;2023-02-28T12:47:17;98507.69;;;5.28;49.66
77431;BME280;66498;48.564;19.272;2023-02-28T12:49:49;98498.56;;;5.32;47.35
77431;BME280;66498;48.564;19.272;2023-02-28T12:52:23;98491.59;;;5.25;49.29
77431;BME280;66498;48.564;19.272;2023-02-28T12:55:23;98493.06;;;5.11;50.63
77431;BME280;66498;48.564;19.272;2023-02-28T13:00:35;98484.09;;;4.89;52.94
77431;BME280;66498;48.564;19.272;2023-02-28T13:03:29;98486.38;;;5.08;50.08
77431;BME280;66498;48.564;19.272;2023-02-28T13:09:01;98485.75;;;5.14;51.77
77431;BME280;66498;48.564;19.272;2023-02-28T13:11:48;98489.31;;;5.21;50.60
77431;BME280;66498;48.564;19.272;2023-02-28T13:19:34;98485.75;;;5.06;51.01
77431;BME280;66498;48.564;19.272;2023-02-28T13:22:01;98491.25;;;5.11;51.77
77431;BME280;66498;48.564;19.272;2023-02-28T13:24:56;98482.31;;;4.81;51.39
77431;BME280;66498;48.564;19.272;2023-02-28T13:27:31;98481.63;;;4.71;52.62
77431;BME280;66498;48.564;19.272;2023-02-28T13:29:58;98479.06;;;4.95;50.79
77431;BME280;66498;48.564;19.272;2023-02-28T13:32:35;98474.50;;;4.97;53.52
77431;BME280;66498;48.564;19.272;2023-02-28T13:37:36;98471.09;;;4.72;51.85
77431;BME280;66498;48.564;19.272;2023-02-28T13:40:26;98476.13;;;4.82;55.55
77431;BME280;66498;48.564;19.272;2023-02-28T13:42:53;98470.28;;;4.96;53.04
77431;BME280;66498;48.564;19.272;2023-02-28T13:45:20;98463.75;;;4.92;52.35
77431;BME280;66498;48.564;19.272;2023-02-28T13:55:46;98464.56;;;4.68;53.23
77431;BME280;66498;48.564;19.272;2023-02-28T14:01:55;98466.53;;;5.07;51.47
77431;BME280;66498;48.564;19.272;2023-02-28T14:07:09;98462.78;;;4.61;51.45
77431;BME280;66498;48.564;19.272;2023-02-28T14:09:48;98469.13;;;4.66;51.80
77431;BME280;66498;48.564;19.272;2023-02-28T14:15:00;98467.50;;;4.98;52.09
77431;BME280;66498;48.564;19.272;2023-02-28T14:17:26;98468.97;;;4.76;52.14
77431;BME280;66498;48.564;19.272;2023-02-28T14:19:51;98475.44;;;4.64;52.45
77431;BME280;66498;48.564;19.272;2023-02-28T14:30:40;98471.06;;;4.56;56.23
77431;BME280;66498;48.564;19.272;2023-02-28T14:39:03;98466.13;;;4.45;54.34
77431;BME280;66498;48.564;19.272;2023-02-28T14:41:36;98470.00;;;4.24;55.59
77431;BME280;66498;48.564;19.272;2023-02-28T14:44:27;98470.16;;;4.23;57.41
77431;BME280;66498;48.564;19.272;2023-02-28T14:46:55;98471.47;;;4.27;54.85
77431;BME280;66498;48.564;19.272;2023-02-28T14:49:26;98468.66;;;4.12;58.55
77431;BME280;66498;48.564;19.272;2023-02-28T14:52:31;98467.34;;;4.08;57.65
77431;BME280;66498;48.564;19.272;2023-02-28T14:55:18;98464.09;;;4.14;60.25
77431;BME280;66498;48.564;19.272;2023-02-28T14:57:59;98460.19;;;4.10;59.56
77431;BME280;66498;48.564;19.272;2023-02-28T15:00:33;98461.50;;;4.14;58.78
77431;BME280;66498;48.564;19.272;2023-02-28T15:03:01;98464.59;;;4.10;59.66
77431;BME280;66498;48.564;19.272;2023-02-28T15:08:21;98471.38;;;4.02;58.26
77431;BME280;66498;48.564;19.272;2023-02-28T15:10:54;98475.91;;;4.00;59.49
77431;BME280;66498;48.564;19.272;2023-02-28T15:13:21;98470.38;;;3.95;61.67
77431;BME280;66498;48.564;19.272;2023-02-28T15:15:58;98470.22;;;3.97;58.40
77431;BME280;66498;48.564;19.272;2023-02-28T15:21:16;98470.66;;;3.84;59.08
77431;BME280;66498;48.564;19.272;2023-02-28T15:23:46;98475.03;;;3.84;62.64
77431;BME280;66498;48.564;19.272;2023-02-28T15:26:21;98474.97;;;3.67;61.62
77431;BME280;66498;48.564;19.272;2023-02-28T15:28:58;98475.09;;;3.66;62.33
77431;BME280;66498;48.564;19.272;2023-02-28T15:31:31;98480.16;;;3.67;62.74
77431;BME280;66498;48.564;19.272;2023-02-28T15:34:03;98475.59;;;3.69;63.68